Time;durP1;ratioP1;P1;durP2;ratioP2;P2;SDS_P1;SDS_P2;PMS_P1;PMS_P2;Temp;Humidity;BMP_temperature;BMP_pressure;BME280_temperature;BME280_humidity;BME280_pressure;Samples;Min_cycle;Max_cycle;Signal;HPM_P1;HPM_P2
2021/01/08 00:00:20;;;;;;;6.22;3.95;;;1.60;99.90;;;;;;1972865;72;21125;-70
2021/01/08 00:02:46;;;;;;;5.85;3.50;;;1.50;99.90;;;;;;1973383;72;21072;-70
2021/01/08 00:05:12;;;;;;;8.30;4.60;;;1.60;99.90;;;;;;1974724;72;21076;-70
2021/01/08 00:07:38;;;;;;;6.08;4.22;;;1.70;99.90;;;;;;1977106;72;21120;-70
2021/01/08 00:10:05;;;;;;;6.92;4.55;;;1.60;99.90;;;;;;1969471;72;21050;-70
2021/01/08 00:12:31;;;;;;;8.20;4.05;;;1.60;99.90;;;;;;1973191;72;21032;-70
2021/01/08 00:14:57;;;;;;;8.53;4.30;;;1.70;99.90;;;;;;1969254;72;21058;-71
2021/01/08 00:17:25;;;;;;;8.60;4.85;;;1.80;99.90;;;;;;1967926;72;21455;-69
2021/01/08 00:19:51;;;;;;;5.70;3.75;;;1.80;99.90;;;;;;1971078;72;21059;-70
2021/01/08 00:22:17;;;;;;;6.78;4.12;;;1.70;99.90;;;;;;1967626;72;21545;-69
2021/01/08 00:24:43;;;;;;;9.68;4.60;;;1.70;99.90;;;;;;1971772;72;21112;-70
2021/01/08 00:27:09;;;;;;;7.45;4.60;;;1.70;99.90;;;;;;1983064;72;21070;-70
2021/01/08 00:29:35;;;;;;;10.28;4.95;;;1.60;99.90;;;;;;1984400;72;21109;-71
2021/01/08 00:32:02;;;;;;;11.25;5.72;;;1.60;99.90;;;;;;1976712;72;21134;-70
2021/01/08 00:34:28;;;;;;;8.23;4.75;;;1.70;99.90;;;;;;1973159;72;21025;-70
2021/01/08 00:36:54;;;;;;;6.55;4.33;;;1.80;99.90;;;;;;1975453;72;21050;-71
2021/01/08 00:39:20;;;;;;;7.58;3.95;;;1.80;99.90;;;;;;1979191;72;21058;-70
2021/01/08 00:41:47;;;;;;;10.88;4.30;;;1.70;99.90;;;;;;1976200;72;21056;-70
2021/01/08 00:44:13;;;;;;;9.60;4.62;;;1.70;99.90;;;;;;1972798;72;21133;-71
2021/01/08 00:46:39;;;;;;;8.23;4.55;;;1.70;99.90;;;;;;1972311;72;21102;-71
2021/01/08 00:49:05;;;;;;;5.33;3.90;;;1.70;99.90;;;;;;1974486;73;21047;-70
2021/01/08 00:51:31;;;;;;;10.58;5.10;;;1.80;99.90;;;;;;1974073;72;21067;-70
2021/01/08 00:53:57;;;;;;;8.85;4.53;;;1.80;99.90;;;;;;1972596;72;21068;-70
2021/01/08 00:56:24;;;;;;;5.40;4.05;;;1.80;99.90;;;;;;1973911;72;21051;-70
2021/01/08 00:58:50;;;;;;;7.58;4.62;;;1.70;99.90;;;;;;1974785;73;21063;-71
2021/01/08 01:01:16;;;;;;;7.72;4.67;;;1.70;99.90;;;;;;1974575;72;21113;-70
2021/01/08 01:03:42;;;;;;;9.95;4.83;;;1.80;99.90;;;;;;1971157;72;21055;-70
2021/01/08 01:06:08;;;;;;;6.90;4.42;;;1.80;99.90;;;;;;1980877;72;21068;-70
2021/01/08 01:08:34;;;;;;;6.90;4.17;;;1.80;99.90;;;;;;1981849;72;21098;-71
2021/01/08 01:11:00;;;;;;;8.45;5.12;;;1.70;99.90;;;;;;1979170;72;21476;-71
2021/01/08 01:13:26;;;;;;;6.80;4.30;;;1.80;99.90;;;;;;1985091;72;21428;-70
2021/01/08 01:15:53;;;;;;;10.00;4.80;;;1.70;99.90;;;;;;1972356;72;21051;-71
2021/01/08 01:18:19;;;;;;;8.73;5.15;;;1.60;99.90;;;;;;1971141;72;21125;-70
2021/01/08 01:20:45;;;;;;;11.35;5.20;;;1.60;99.90;;;;;;1970965;72;21125;-70
2021/01/08 01:23:11;;;;;;;14.58;5.15;;;1.50;99.90;;;;;;1974755;72;21043;-71
2021/01/08 01:25:37;;;;;;;6.53;4.37;;;1.50;99.90;;;;;;1974309;72;21126;-70
2021/01/08 01:28:03;;;;;;;8.98;4.40;;;1.60;99.90;;;;;;1968865;72;21079;-70
2021/01/08 01:30:31;;;;;;;6.55;4.62;;;1.70;99.90;;;;;;1970142;72;21116;-70
2021/01/08 01:32:57;;;;;;;5.62;4.00;;;1.70;99.90;;;;;;1977703;72;21073;-71
2021/01/08 01:35:23;;;;;;;8.75;4.00;;;1.70;99.90;;;;;;1969750;72;21047;-70
2021/01/08 01:37:49;;;;;;;6.12;4.05;;;1.70;99.90;;;;;;1974688;73;21152;-71
2021/01/08 01:40:15;;;;;;;11.25;3.90;;;1.80;99.90;;;;;;1971022;72;21106;-70
2021/01/08 01:42:41;;;;;;;9.13;5.08;;;1.70;99.90;;;;;;1968475;72;21148;-71
2021/01/08 01:45:08;;;;;;;13.25;5.22;;;1.50;99.90;;;;;;1977264;72;21068;-70
2021/01/08 01:47:34;;;;;;;8.30;4.72;;;1.50;99.90;;;;;;1974452;72;21077;-71
2021/01/08 01:50:00;;;;;;;8.93;4.75;;;1.50;99.90;;;;;;1971837;72;21094;-70
2021/01/08 01:52:26;;;;;;;9.93;5.37;;;1.50;99.90;;;;;;1971381;72;21062;-71
2021/01/08 01:54:52;;;;;;;8.93;4.25;;;1.60;99.90;;;;;;1984637;72;21075;-71
2021/01/08 01:57:18;;;;;;;8.73;3.52;;;1.60;99.90;;;;;;1976008;72;21560;-70
2021/01/08 01:59:44;;;;;;;9.70;4.95;;;1.60;99.90;;;;;;1975889;72;21423;-70
2021/01/08 02:02:10;;;;;;;8.90;4.55;;;1.50;99.90;;;;;;1973696;72;21480;-70
2021/01/08 02:04:37;;;;;;;7.37;4.70;;;1.40;99.90;;;;;;1974557;72;21031;-71
2021/01/08 02:07:03;;;;;;;6.80;4.78;;;1.50;99.90;;;;;;1974224;72;21064;-70
2021/01/08 02:09:29;;;;;;;7.75;4.90;;;1.40;99.90;;;;;;1974624;72;21059;-70
2021/01/08 02:11:55;;;;;;;7.37;4.60;;;1.40;99.90;;;;;;1966455;72;21051;-70
2021/01/08 02:14:21;;;;;;;14.20;5.15;;;1.30;99.90;;;;;;1972192;72;21059;-70
2021/01/08 02:16:47;;;;;;;8.85;5.40;;;1.30;99.90;;;;;;1979948;72;21051;-70
2021/01/08 02:19:14;;;;;;;10.53;4.95;;;1.10;99.90;;;;;;1972292;72;21552;-70
2021/01/08 02:21:40;;;;;;;9.63;5.05;;;1.10;99.90;;;;;;1974253;72;21616;-71
2021/01/08 02:24:06;;;;;;;10.20;5.37;;;1.00;99.90;;;;;;1967938;72;21428;-70
2021/01/08 02:26:32;;;;;;;9.45;4.83;;;1.00;99.90;;;;;;1974146;72;21163;-70
2021/01/08 02:28:58;;;;;;;8.15;5.12;;;1.00;99.90;;;;;;1977285;72;21064;-70
2021/01/08 02:31:24;;;;;;;6.65;4.55;;;1.10;99.90;;;;;;1973058;72;21058;-70
2021/01/08 02:33:50;;;;;;;11.20;5.05;;;1.20;99.90;;;;;;1977945;72;21062;-70
2021/01/08 02:36:17;;;;;;;10.13;4.83;;;1.20;99.90;;;;;;1968829;72;21056;-71
2021/01/08 02:38:43;;;;;;;6.80;4.35;;;1.30;99.90;;;;;;1972333;72;21066;-70
2021/01/08 02:41:09;;;;;;;9.05;4.58;;;1.40;99.90;;;;;;1973787;72;21173;-70
2021/01/08 02:43:35;;;;;;;6.78;4.75;;;1.40;99.90;;;;;;1983516;72;21460;-70
2021/01/08 02:46:02;;;;;;;7.78;4.75;;;1.40;99.90;;;;;;1967083;72;21452;-70
2021/01/08 02:48:28;;;;;;;10.35;5.42;;;1.40;99.90;;;;;;1977812;72;21040;-70
2021/01/08 02:50:54;;;;;;;9.45;4.83;;;1.40;99.90;;;;;;1981283;72;21054;-70
2021/01/08 02:53:20;;;;;;;6.30;4.22;;;1.40;99.90;;;;;;1980478;72;21129;-70
2021/01/08 02:55:46;;;;;;;8.83;4.78;;;1.40;99.90;;;;;;1971658;72;21123;-70
2021/01/08 02:58:12;;;;;;;8.40;5.20;;;1.40;99.90;;;;;;1973608;72;21123;-69
2021/01/08 03:00:38;;;;;;;10.53;5.47;;;1.50;99.90;;;;;;1964909;72;21495;-70
2021/01/08 03:03:05;;;;;;;8.75;4.87;;;1.50;99.90;;;;;;1982079;72;21455;-70
2021/01/08 03:05:31;;;;;;;8.10;5.05;;;1.50;99.90;;;;;;1981919;72;21043;-70
2021/01/08 03:07:57;;;;;;;7.85;5.00;;;1.40;99.90;;;;;;1970924;72;21079;-70
2021/01/08 03:10:23;;;;;;;9.73;4.62;;;1.50;99.90;;;;;;1973670;72;21593;-69
2021/01/08 03:12:50;;;;;;;12.50;5.72;;;1.50;99.90;;;;;;1974073;72;21527;-70
2021/01/08 03:15:16;;;;;;;8.18;4.90;;;1.50;99.90;;;;;;1974644;73;21529;-69
2021/01/08 03:17:42;;;;;;;9.38;5.25;;;1.50;99.90;;;;;;1973322;72;21048;-71
2021/01/08 03:20:08;;;;;;;7.85;4.75;;;1.50;99.90;;;;;;1975513;72;21133;-70
2021/01/08 03:22:34;;;;;;;11.97;5.10;;;1.50;99.90;;;;;;1965164;72;21127;-70
2021/01/08 03:25:00;;;;;;;7.25;4.28;;;1.40;99.90;;;;;;1983296;72;21168;-70
2021/01/08 03:27:26;;;;;;;10.13;4.92;;;1.50;99.90;;;;;;1980671;72;21110;-69
2021/01/08 03:29:52;;;;;;;11.97;4.35;;;1.50;99.90;;;;;;1966815;72;21029;-70
2021/01/08 03:32:18;;;;;;;7.65;4.62;;;1.50;99.90;;;;;;1977010;72;21124;-70
2021/01/08 03:34:45;;;;;;;7.15;4.53;;;1.60;99.90;;;;;;1975118;72;21052;-69
2021/01/08 03:37:11;;;;;;;7.70;4.25;;;1.60;99.90;;;;;;1965386;72;21071;-69
2021/01/08 03:39:37;;;;;;;11.10;5.85;;;1.60;99.90;;;;;;1972221;72;21024;-69
2021/01/08 03:42:03;;;;;;;9.80;5.15;;;1.40;99.90;;;;;;1981020;72;21050;-70
2021/01/08 03:44:29;;;;;;;7.30;4.83;;;1.30;99.90;;;;;;1977268;72;21064;-70
2021/01/08 03:46:55;;;;;;;14.25;5.28;;;1.40;99.90;;;;;;1971215;72;21432;-70
2021/01/08 03:49:21;;;;;;;12.75;5.47;;;1.30;99.90;;;;;;1971173;72;21475;-69
2021/01/08 03:51:47;;;;;;;10.55;5.87;;;1.30;99.90;;;;;;1971444;72;21551;-70
2021/01/08 03:54:14;;;;;;;17.95;6.40;;;1.20;99.90;;;;;;1974546;73;21108;-70
2021/01/08 03:56:40;;;;;;;10.48;5.87;;;1.20;99.90;;;;;;1974219;72;21103;-70
2021/01/08 03:59:06;;;;;;;8.38;5.15;;;1.20;99.90;;;;;;1974567;72;21060;-71
2021/01/08 04:01:32;;;;;;;9.90;5.58;;;1.20;99.90;;;;;;1974204;72;21032;-70
2021/01/08 04:03:58;;;;;;;11.43;5.08;;;1.20;99.90;;;;;;1981471;72;21106;-70
2021/01/08 04:06:24;;;;;;;8.95;5.10;;;1.20;99.90;;;;;;1974468;72;21056;-70
2021/01/08 04:08:50;;;;;;;6.45;4.97;;;1.20;99.90;;;;;;1971352;72;21180;-69
2021/01/08 04:11:16;;;;;;;12.03;5.75;;;1.20;99.90;;;;;;1974569;73;21114;-70
2021/01/08 04:13:42;;;;;;;9.20;5.12;;;1.30;99.90;;;;;;1974608;73;21117;-69
2021/01/08 04:16:09;;;;;;;7.45;5.03;;;1.30;99.90;;;;;;1980437;72;21067;-69
2021/01/08 04:18:35;;;;;;;10.55;5.22;;;1.30;99.90;;;;;;1970881;72;21023;-70
2021/01/08 04:21:01;;;;;;;10.10;5.17;;;1.30;99.90;;;;;;1977308;72;21065;-69
2021/01/08 04:23:27;;;;;;;9.95;5.45;;;1.40;99.90;;;;;;1991761;72;21553;-70
2021/01/08 04:25:53;;;;;;;10.32;4.92;;;1.40;99.90;;;;;;1985233;72;21491;-70
2021/01/08 04:28:19;;;;;;;8.28;4.85;;;1.20;99.90;;;;;;1976386;72;21536;-70
2021/01/08 04:30:45;;;;;;;12.47;5.50;;;1.30;99.90;;;;;;1982140;72;21104;-70
2021/01/08 04:33:11;;;;;;;8.80;5.40;;;1.20;99.90;;;;;;1975187;72;21032;-71
2021/01/08 04:35:38;;;;;;;8.60;5.15;;;1.20;99.90;;;;;;1976419;72;21124;-70
2021/01/08 04:38:04;;;;;;;9.13;5.33;;;1.20;99.90;;;;;;1985130;72;21063;-70
2021/01/08 04:40:30;;;;;;;8.13;4.85;;;1.20;99.90;;;;;;1971560;72;21122;-69
2021/01/08 04:42:56;;;;;;;8.03;4.65;;;1.10;99.90;;;;;;1971283;72;21052;-70
2021/01/08 04:45:22;;;;;;;9.23;4.92;;;1.20;99.90;;;;;;1974688;73;21051;-70
2021/01/08 04:47:48;;;;;;;10.00;4.67;;;1.20;99.90;;;;;;1970162;72;21116;-70
2021/01/08 04:50:14;;;;;;;6.60;4.50;;;1.10;99.90;;;;;;1981136;72;21020;-70
2021/01/08 04:52:40;;;;;;;8.33;5.75;;;1.20;99.90;;;;;;1971188;72;21091;-69
2021/01/08 04:55:07;;;;;;;10.43;5.65;;;1.00;99.90;;;;;;1974623;73;21121;-70
2021/01/08 04:57:33;;;;;;;8.28;4.72;;;1.10;99.90;;;;;;1971989;72;21463;-70
2021/01/08 04:59:59;;;;;;;8.80;5.28;;;1.10;99.90;;;;;;1979922;72;21564;-70
2021/01/08 05:02:25;;;;;;;8.98;4.85;;;1.10;99.90;;;;;;1976614;72;21556;-70
2021/01/08 05:04:51;;;;;;;8.28;5.03;;;1.10;99.90;;;;;;1975023;72;21051;-71
2021/01/08 05:07:17;;;;;;;10.40;5.22;;;1.10;99.90;;;;;;1971282;72;21086;-70
2021/01/08 05:09:43;;;;;;;8.95;5.30;;;1.20;99.90;;;;;;1977447;72;21024;-70
2021/01/08 05:12:09;;;;;;;8.03;5.03;;;1.20;99.90;;;;;;1973817;72;21118;-70
2021/01/08 05:14:36;;;;;;;11.50;5.58;;;1.30;99.90;;;;;;1971798;72;21121;-69
2021/01/08 05:17:02;;;;;;;7.03;4.70;;;1.30;99.90;;;;;;1974468;72;21056;-70
2021/01/08 05:19:28;;;;;;;9.43;5.33;;;1.30;99.90;;;;;;1968473;72;21058;-70
2021/01/08 05:21:54;;;;;;;8.58;4.53;;;1.30;99.90;;;;;;1974730;73;21113;-68
2021/01/08 05:24:20;;;;;;;9.05;4.45;;;1.30;99.90;;;;;;1966002;72;21097;-69
2021/01/08 05:26:47;;;;;;;7.90;4.72;;;1.30;99.90;;;;;;1983743;72;21120;-69
2021/01/08 05:29:13;;;;;;;9.58;4.90;;;1.30;99.90;;;;;;1971826;72;21047;-70
2021/01/08 05:31:39;;;;;;;8.70;4.85;;;1.30;99.90;;;;;;1971296;72;21040;-71
2021/01/08 05:34:05;;;;;;;13.48;5.37;;;1.20;99.90;;;;;;1974649;72;21055;-70
2021/01/08 05:36:31;;;;;;;7.28;4.45;;;1.30;99.90;;;;;;1972258;72;21042;-70
2021/01/08 05:39:00;;;;;;;14.05;5.58;;;1.20;99.90;;;;;;1976409;72;21072;-69
2021/01/08 05:41:26;;;;;;;7.58;4.60;;;1.30;99.90;;;;;;1969735;72;21505;-70
2021/01/08 05:43:52;;;;;;;6.92;4.22;;;1.20;99.90;;;;;;1971908;72;21545;-71
2021/01/08 05:46:18;;;;;;;8.98;5.15;;;1.10;99.90;;;;;;1967844;72;21417;-71
2021/01/08 05:48:44;;;;;;;8.30;4.47;;;1.10;99.90;;;;;;1971435;72;21055;-70
2021/01/08 05:51:10;;;;;;;8.98;4.72;;;1.00;99.90;;;;;;1974557;73;21164;-70
2021/01/08 05:53:37;;;;;;;8.30;4.87;;;1.10;99.90;;;;;;1965763;72;21056;-70
2021/01/08 05:56:03;;;;;;;6.92;4.35;;;1.00;99.90;;;;;;1970161;72;21079;-71
2021/01/08 05:58:29;;;;;;;9.00;5.25;;;1.00;99.90;;;;;;1972383;72;21123;-71
2021/01/08 06:00:56;;;;;;;9.85;5.00;;;1.10;99.90;;;;;;1981866;72;21502;-70
2021/01/08 06:03:22;;;;;;;8.50;4.80;;;1.10;99.90;;;;;;1968623;72;21514;-70
2021/01/08 06:05:48;;;;;;;10.60;4.65;;;1.20;99.90;;;;;;1974836;72;21067;-70
2021/01/08 06:08:14;;;;;;;5.97;3.65;;;1.20;99.90;;;;;;1982309;72;21032;-70
2021/01/08 06:10:41;;;;;;;6.22;4.53;;;1.20;99.90;;;;;;1978582;72;21110;-70
2021/01/08 06:13:07;;;;;;;9.55;4.75;;;1.20;99.90;;;;;;1975833;72;21063;-70
2021/01/08 06:15:33;;;;;;;7.20;4.47;;;1.30;99.90;;;;;;1967147;72;21066;-71
2021/01/08 06:17:59;;;;;;;6.87;4.03;;;1.40;99.90;;;;;;1969936;72;21090;-70
2021/01/08 06:20:25;;;;;;;13.22;4.12;;;1.40;99.90;;;;;;1967308;72;21459;-70
2021/01/08 06:22:51;;;;;;;6.12;3.95;;;1.30;99.90;;;;;;1961246;72;21466;-70
2021/01/08 06:25:17;;;;;;;8.65;3.90;;;1.40;99.90;;;;;;1980780;72;21476;-70
2021/01/08 06:27:43;;;;;;;8.23;3.83;;;1.40;99.90;;;;;;1973027;72;21058;-71
2021/01/08 06:30:10;;;;;;;6.15;3.72;;;1.40;99.90;;;;;;1976296;72;21043;-71
2021/01/08 06:32:36;;;;;;;7.00;3.62;;;1.40;99.90;;;;;;1987501;72;21059;-70
2021/01/08 06:35:02;;;;;;;6.12;3.50;;;1.40;99.90;;;;;;1974609;72;21129;-70
2021/01/08 06:37:29;;;;;;;6.90;4.05;;;1.40;99.90;;;;;;1973679;72;21632;-70
2021/01/08 06:39:55;;;;;;;7.05;3.83;;;1.40;99.90;;;;;;1967929;72;21075;-71
2021/01/08 06:42:22;;;;;;;5.67;3.83;;;1.40;99.90;;;;;;1968366;72;21173;-71
2021/01/08 06:44:48;;;;;;;6.65;4.37;;;1.40;99.90;;;;;;1974527;72;21136;-71
2021/01/08 06:47:14;;;;;;;5.00;3.17;;;1.40;99.90;;;;;;1979966;72;21491;-71
2021/01/08 06:49:40;;;;;;;5.10;3.45;;;1.40;99.90;;;;;;1971334;72;21451;-71
2021/01/08 06:52:06;;;;;;;9.10;3.50;;;1.40;99.90;;;;;;1973250;72;21579;-71
2021/01/08 06:54:32;;;;;;;7.62;3.65;;;1.40;99.90;;;;;;1975657;72;21120;-71
2021/01/08 06:56:58;;;;;;;4.25;2.95;;;1.50;99.90;;;;;;1970831;72;21124;-71
2021/01/08 06:59:24;;;;;;;11.40;4.10;;;1.50;99.90;;;;;;1969866;72;21049;-71
2021/01/08 07:01:55;;;;;;;5.58;3.72;;;1.50;99.90;;;;;;1967947;72;21056;-71
2021/01/08 07:04:20;;;;;;;4.28;3.20;;;1.50;99.90;;;;;;1964003;72;21048;-72
2021/01/08 07:06:46;;;;;;;8.38;3.58;;;1.40;99.90;;;;;;1972303;72;21083;-72
2021/01/08 07:09:12;;;;;;;4.30;3.00;;;1.40;99.90;;;;;;1975558;72;21121;-71
2021/01/08 07:11:39;;;;;;;5.78;3.45;;;1.40;99.90;;;;;;1969522;72;21030;-71
2021/01/08 07:14:05;;;;;;;4.67;3.72;;;1.40;99.90;;;;;;1977588;72;21031;-71
2021/01/08 07:16:31;;;;;;;3.92;2.90;;;1.40;99.90;;;;;;1974470;72;21072;-72
2021/01/08 07:18:57;;;;;;;5.12;3.10;;;1.50;99.90;;;;;;1969139;72;21055;-71
2021/01/08 07:21:23;;;;;;;5.62;3.30;;;1.40;99.90;;;;;;1989009;72;21137;-70
2021/01/08 07:23:49;;;;;;;3.72;3.15;;;1.40;99.90;;;;;;1984583;72;21055;-73
2021/01/08 07:26:16;;;;;;;5.72;3.15;;;1.40;99.90;;;;;;1974462;72;21043;-73
2021/01/08 07:28:42;;;;;;;6.70;3.12;;;1.50;99.90;;;;;;1981537;72;21051;-70
2021/01/08 07:31:08;;;;;;;4.65;3.27;;;1.40;99.90;;;;;;1970046;72;21117;-70
2021/01/08 07:33:34;;;;;;;5.10;3.37;;;1.50;99.90;;;;;;1969090;72;21056;-71
2021/01/08 07:36:00;;;;;;;9.10;3.25;;;1.60;99.90;;;;;;1975664;72;21067;-70
2021/01/08 07:38:26;;;;;;;3.45;2.70;;;1.70;99.90;;;;;;1975841;72;21059;-69
2021/01/08 07:40:52;;;;;;;3.72;2.62;;;1.70;99.90;;;;;;1975385;72;21099;-72
2021/01/08 07:43:18;;;;;;;7.92;3.45;;;1.80;99.90;;;;;;1968172;72;21172;-69
2021/01/08 07:45:47;;;;;;;7.47;3.62;;;1.70;99.90;;;;;;1974012;72;21549;-69
2021/01/08 07:48:12;;;;;;;4.53;3.02;;;1.70;99.90;;;;;;1974441;72;21424;-69
2021/01/08 07:50:39;;;;;;;5.50;3.33;;;1.70;99.90;;;;;;1967107;72;21529;-69
2021/01/08 07:53:05;;;;;;;3.98;3.10;;;1.80;99.90;;;;;;1974268;72;21549;-69
2021/01/08 07:55:31;;;;;;;6.25;3.75;;;1.90;99.90;;;;;;1968120;72;21036;-69
2021/01/08 07:57:57;;;;;;;4.58;3.00;;;1.80;99.90;;;;;;1977404;72;21047;-71
2021/01/08 08:00:23;;;;;;;5.05;3.25;;;1.80;99.90;;;;;;1979258;72;21055;-71
2021/01/08 08:02:49;;;;;;;5.78;3.30;;;1.90;99.90;;;;;;1988404;72;21133;-72
2021/01/08 08:05:15;;;;;;;3.33;2.85;;;1.90;99.90;;;;;;1974600;73;21047;-71
2021/01/08 08:07:41;;;;;;;5.25;3.17;;;1.70;99.90;;;;;;1970933;72;21051;-72
2021/01/08 08:10:07;;;;;;;5.10;3.15;;;1.80;99.90;;;;;;1974710;73;21052;-71
2021/01/08 08:12:34;;;;;;;7.50;3.15;;;1.90;99.90;;;;;;1971088;72;21030;-71
2021/01/08 08:15:00;;;;;;;5.30;3.42;;;1.90;99.90;;;;;;1970954;72;21119;-73
2021/01/08 08:17:26;;;;;;;4.50;3.05;;;1.90;99.90;;;;;;1974869;72;21099;-71
2021/01/08 08:19:52;;;;;;;4.78;3.10;;;1.90;99.90;;;;;;1973482;72;21063;-71
2021/01/08 08:22:18;;;;;;;4.80;2.98;;;2.00;99.90;;;;;;1974523;72;21444;-71
2021/01/08 08:24:44;;;;;;;4.55;2.65;;;2.00;99.90;;;;;;1972646;72;21467;-71
2021/01/08 08:27:10;;;;;;;4.30;3.30;;;2.00;99.90;;;;;;1976098;72;21579;-72
2021/01/08 08:29:36;;;;;;;7.12;3.10;;;2.00;99.90;;;;;;1968248;72;21054;-70
2021/01/08 08:32:03;;;;;;;4.22;3.08;;;2.00;99.90;;;;;;1973956;72;21040;-71
2021/01/08 08:34:29;;;;;;;5.22;3.12;;;2.00;99.90;;;;;;1974186;72;21063;-72
2021/01/08 08:36:55;;;;;;;6.50;3.20;;;2.10;99.90;;;;;;1971216;72;21051;-71
2021/01/08 08:39:21;;;;;;;5.20;3.42;;;2.10;99.90;;;;;;1970786;72;21095;-73
2021/01/08 08:41:52;;;;;;;5.97;3.58;;;2.30;99.90;;;;;;1971273;72;21114;-73
2021/01/08 08:44:15;;;;;;;6.47;3.33;;;2.30;99.90;;;;;;1973303;72;21052;-73
2021/01/08 08:46:41;;;;;;;9.28;3.55;;;2.30;99.90;;;;;;1972238;72;21220;-71
2021/01/08 08:49:07;;;;;;;7.15;3.27;;;2.30;99.90;;;;;;1973624;72;21032;-73
2021/01/08 08:51:33;;;;;;;3.90;2.87;;;2.40;99.90;;;;;;1974599;72;21032;-73
2021/01/08 08:54:00;;;;;;;4.65;3.08;;;2.30;99.90;;;;;;1970837;72;21440;-73
2021/01/08 08:56:26;;;;;;;4.80;3.08;;;2.30;99.90;;;;;;1974587;72;21471;-74
2021/01/08 08:58:52;;;;;;;4.85;3.12;;;2.30;99.90;;;;;;1971307;72;21477;-72
2021/01/08 09:01:18;;;;;;;4.75;3.00;;;2.30;99.90;;;;;;1974495;72;21060;-71
2021/01/08 09:03:44;;;;;;;5.65;3.15;;;2.50;99.90;;;;;;1972126;72;21042;-73
2021/01/08 09:06:10;;;;;;;5.92;3.30;;;2.50;99.90;;;;;;1971779;72;21103;-72
2021/01/08 09:08:36;;;;;;;3.80;2.70;;;2.50;99.90;;;;;;1974605;73;21051;-72
2021/01/08 09:11:02;;;;;;;8.25;2.85;;;2.50;99.90;;;;;;1974687;72;21076;-73
2021/01/08 09:13:28;;;;;;;4.20;2.90;;;2.50;99.90;;;;;;1977805;72;21125;-71
2021/01/08 09:15:55;;;;;;;2.92;2.20;;;2.50;99.90;;;;;;1974299;72;21068;-72
2021/01/08 09:18:21;;;;;;;4.25;2.80;;;2.40;99.90;;;;;;1974208;72;21115;-72
2021/01/08 09:20:47;;;;;;;5.20;3.52;;;2.20;99.90;;;;;;1970579;72;21125;-71
2021/01/08 09:23:13;;;;;;;4.20;2.95;;;2.00;99.90;;;;;;1972173;72;21083;-73
2021/01/08 09:25:39;;;;;;;5.72;2.70;;;2.10;99.90;;;;;;1974638;73;21124;-73
2021/01/08 09:28:05;;;;;;;4.87;3.00;;;2.30;99.90;;;;;;1985159;72;21499;-71
2021/01/08 09:30:31;;;;;;;4.25;3.08;;;2.20;99.90;;;;;;1979467;72;21428;-71
2021/01/08 09:32:58;;;;;;;4.00;2.95;;;2.20;99.90;;;;;;1972854;72;21475;-72
2021/01/08 09:35:24;;;;;;;3.90;3.05;;;2.20;99.90;;;;;;1973028;72;21059;-72
2021/01/08 09:37:50;;;;;;;6.80;3.10;;;2.30;99.90;;;;;;1974495;72;21050;-72
2021/01/08 09:40:16;;;;;;;4.22;2.72;;;2.30;99.90;;;;;;1971383;72;21043;-73
2021/01/08 09:42:42;;;;;;;4.60;2.92;;;2.40;99.90;;;;;;1977736;72;21121;-73
2021/01/08 09:45:08;;;;;;;3.93;2.90;;;2.30;99.90;;;;;;1974650;72;21080;-73
2021/01/08 09:47:34;;;;;;;4.10;2.65;;;2.30;99.90;;;;;;1971145;72;21208;-73
2021/01/08 09:50:01;;;;;;;5.22;3.00;;;2.40;99.90;;;;;;1972591;72;21078;-71
2021/01/08 09:52:27;;;;;;;6.92;3.20;;;2.20;99.90;;;;;;1971279;72;21128;-75
2021/01/08 09:54:54;;;;;;;3.85;2.67;;;2.10;99.90;;;;;;1977320;72;21036;-72
2021/01/08 09:57:20;;;;;;;14.35;3.08;;;2.10;99.90;;;;;;1974580;73;21460;-73
2021/01/08 09:59:46;;;;;;;4.25;3.08;;;2.20;99.90;;;;;;1966901;72;21646;-72
2021/01/08 10:02:12;;;;;;;5.62;3.17;;;2.30;99.90;;;;;;1968493;72;21518;-71
2021/01/08 10:04:38;;;;;;;4.78;2.70;;;2.30;99.90;;;;;;1967086;72;21134;-71
2021/01/08 10:07:04;;;;;;;5.35;3.33;;;2.20;99.90;;;;;;1977184;72;21070;-72
2021/01/08 10:09:30;;;;;;;3.90;3.22;;;2.30;99.90;;;;;;1976360;72;21098;-70
2021/01/08 10:11:57;;;;;;;3.87;2.80;;;2.40;99.90;;;;;;1970835;72;21055;-70
2021/01/08 10:14:23;;;;;;;3.72;2.75;;;2.30;99.90;;;;;;1972017;72;21087;-70
2021/01/08 10:16:49;;;;;;;7.20;2.30;;;2.30;99.90;;;;;;1989930;72;21475;-71
2021/01/08 10:19:15;;;;;;;4.70;2.52;;;2.40;99.90;;;;;;1987281;72;21405;-71
2021/01/08 10:21:42;;;;;;;3.90;2.50;;;2.50;99.90;;;;;;1974657;73;21482;-70
2021/01/08 10:24:08;;;;;;;4.50;3.27;;;2.60;99.90;;;;;;1972313;72;21035;-70
2021/01/08 10:26:34;;;;;;;4.15;2.72;;;2.70;99.90;;;;;;1973344;72;21168;-71
2021/01/08 10:29:00;;;;;;;6.70;2.67;;;2.90;99.90;;;;;;1981878;72;21156;-71
2021/01/08 10:31:26;;;;;;;5.53;2.60;;;2.90;99.90;;;;;;1975907;72;21125;-72
2021/01/08 10:33:52;;;;;;;3.77;2.90;;;2.80;99.90;;;;;;1974553;73;21125;-70
2021/01/08 10:36:18;;;;;;;4.97;2.75;;;2.90;99.90;;;;;;1970889;72;21059;-69
2021/01/08 10:38:45;;;;;;;4.10;2.60;;;3.00;99.90;;;;;;1973535;72;21527;-68
2021/01/08 10:41:11;;;;;;;3.55;2.70;;;3.00;99.90;;;;;;1971258;72;21542;-70
2021/01/08 10:43:37;;;;;;;6.47;2.67;;;3.00;99.90;;;;;;1974565;73;21474;-70
2021/01/08 10:46:03;;;;;;;2.58;1.92;;;2.80;99.90;;;;;;1974469;72;21110;-71
2021/01/08 10:48:29;;;;;;;3.83;2.55;;;2.90;99.90;;;;;;1974489;72;21129;-71
2021/01/08 10:50:55;;;;;;;3.42;2.40;;;2.70;99.90;;;;;;1980405;72;21051;-70
2021/01/08 10:53:21;;;;;;;2.95;2.27;;;2.70;99.90;;;;;;1979020;72;21070;-70
2021/01/08 10:55:47;;;;;;;3.10;2.00;;;2.70;99.90;;;;;;1978585;72;21104;-71
2021/01/08 10:58:15;;;;;;;3.27;2.30;;;2.80;99.90;;;;;;1980854;72;21051;-72
2021/01/08 11:00:41;;;;;;;2.52;1.90;;;2.80;99.90;;;;;;1971018;72;21121;-72
2021/01/08 11:03:07;;;;;;;5.55;2.65;;;2.80;99.90;;;;;;1974604;72;21050;-71
2021/01/08 11:05:33;;;;;;;3.25;1.90;;;2.90;99.90;;;;;;1974512;73;21043;-71
2021/01/08 11:07:59;;;;;;;10.70;1.80;;;2.80;99.90;;;;;;1974486;72;21063;-72
2021/01/08 11:10:26;;;;;;;5.65;2.80;;;3.00;99.90;;;;;;1974437;72;21055;-69
2021/01/08 11:12:52;;;;;;;2.42;1.52;;;3.20;99.90;;;;;;1972750;72;21067;-71
2021/01/08 11:15:18;;;;;;;4.60;1.72;;;3.20;99.90;;;;;;1983316;72;21059;-73
2021/01/08 11:17:44;;;;;;;2.62;1.70;;;3.10;99.90;;;;;;1970876;72;21028;-71
2021/01/08 11:20:12;;;;;;;1.95;1.75;;;3.20;99.90;;;;;;1968511;72;21128;-72
2021/01/08 11:22:38;;;;;;;1.42;1.20;;;3.20;99.90;;;;;;1975551;72;21075;-71
2021/01/08 11:25:04;;;;;;;2.00;1.50;;;3.20;99.90;;;;;;1971871;72;21106;-73
2021/01/08 11:27:30;;;;;;;2.33;1.72;;;3.30;99.90;;;;;;1971896;72;21050;-70
2021/01/08 11:29:56;;;;;;;4.17;2.60;;;3.20;99.90;;;;;;1984040;72;21077;-75
2021/01/08 11:32:22;;;;;;;2.27;1.52;;;3.00;99.90;;;;;;1983164;72;21063;-69
2021/01/08 11:34:48;;;;;;;2.55;1.67;;;3.00;99.90;;;;;;1973276;72;21075;-75
2021/01/08 11:37:15;;;;;;;1.52;1.42;;;3.10;99.90;;;;;;1978797;72;21028;-69
2021/01/08 11:39:41;;;;;;;2.47;1.70;;;3.10;99.90;;;;;;1974644;73;21512;-68
2021/01/08 11:42:07;;;;;;;2.20;1.57;;;3.30;99.90;;;;;;1967493;72;21054;-68
2021/01/08 11:44:33;;;;;;;4.67;1.70;;;3.40;99.90;;;;;;1971968;72;21063;-69
2021/01/08 11:46:59;;;;;;;2.85;1.50;;;3.60;99.90;;;;;;1980129;72;21064;-71
2021/01/08 11:49:26;;;;;;;3.15;1.52;;;3.70;99.90;;;;;;1967491;72;21067;-71
2021/01/08 11:51:52;;;;;;;8.13;1.72;;;3.80;99.90;;;;;;1981285;72;21063;-69
2021/01/08 11:54:18;;;;;;;1.82;1.57;;;3.80;99.90;;;;;;1969394;72;21063;-69
2021/01/08 11:56:44;;;;;;;2.72;1.82;;;3.60;99.90;;;;;;1971678;72;21060;-72
2021/01/08 11:59:10;;;;;;;7.28;1.72;;;3.50;99.90;;;;;;1972820;72;21452;-70
2021/01/08 12:01:36;;;;;;;3.30;1.32;;;3.40;99.90;;;;;;1966935;72;21490;-70
2021/01/08 12:04:02;;;;;;;2.33;1.50;;;3.40;99.90;;;;;;1975754;72;21494;-69
2021/01/08 12:06:28;;;;;;;2.00;1.60;;;3.50;99.90;;;;;;1969515;72;21050;-70
2021/01/08 12:08:54;;;;;;;1.50;1.40;;;3.40;99.90;;;;;;1983480;72;21062;-71
2021/01/08 12:11:21;;;;;;;1.40;1.30;;;3.50;99.90;;;;;;1982984;72;21110;-72
2021/01/08 12:13:47;;;;;;;2.22;1.65;;;3.40;99.90;;;;;;1981542;72;21044;-71
2021/01/08 12:16:13;;;;;;;1.95;1.45;;;3.40;99.90;;;;;;1974372;72;21032;-73
2021/01/08 12:18:39;;;;;;;1.70;1.47;;;3.40;99.90;;;;;;1972116;72;21047;-71
2021/01/08 12:21:05;;;;;;;1.70;1.40;;;3.40;99.90;;;;;;1973423;72;21121;-74
2021/01/08 12:23:31;;;;;;;1.45;1.35;;;3.50;99.90;;;;;;1971452;72;21091;-72
2021/01/08 12:25:57;;;;;;;4.15;1.62;;;3.50;99.90;;;;;;1973738;72;21121;-74
2021/01/08 12:28:23;;;;;;;3.98;1.70;;;3.60;99.90;;;;;;1974408;73;21121;-74
2021/01/08 12:30:50;;;;;;;2.80;1.55;;;3.50;99.90;;;;;;1974596;73;21059;-75
2021/01/08 12:33:16;;;;;;;2.40;1.37;;;3.40;99.90;;;;;;1973320;72;21059;-74
2021/01/08 12:35:42;;;;;;;2.83;1.65;;;3.40;99.90;;;;;;1972370;72;21060;-75
2021/01/08 12:38:08;;;;;;;3.05;1.30;;;3.40;99.90;;;;;;1970891;72;21024;-74
2021/01/08 12:40:34;;;;;;;4.10;1.20;;;3.30;99.90;;;;;;1973655;72;21112;-76
2021/01/08 12:43:00;;;;;;;1.72;1.47;;;3.40;99.90;;;;;;1977731;72;21106;-73
2021/01/08 12:45:27;;;;;;;3.17;1.67;;;3.40;99.90;;;;;;1969774;72;21105;-72
2021/01/08 12:47:53;;;;;;;1.40;1.30;;;3.30;99.90;;;;;;1974552;72;21129;-75